createdAt,value
2018-05-14T10:39:07.195Z,75.90
2018-05-14T10:41:39.842Z,71.70
2018-05-14T10:44:12.503Z,73.80
2018-05-14T10:46:44.661Z,73.90
2018-05-14T10:49:16.471Z,75.50
2018-05-14T10:51:49.146Z,76.50
2018-05-14T10:54:21.818Z,74.90
2018-05-14T10:56:53.730Z,74.30
2018-05-14T10:59:25.616Z,74.20
2018-05-14T11:01:57.529Z,72.10
2018-05-14T11:04:30.427Z,72.50
2018-05-14T11:07:02.321Z,72.50
2018-05-14T11:09:34.456Z,74.00
2018-05-14T11:12:06.610Z,74.80
2018-05-14T11:14:38.506Z,76.10
2018-05-14T11:17:10.402Z,78.80
2018-05-14T11:19:42.597Z,79.70
2018-05-14T11:22:14.505Z,81.20
2018-05-14T11:24:46.402Z,81.20
2018-05-14T11:27:19.932Z,80.20
2018-05-14T11:29:52.085Z,80.20
2018-05-14T11:32:23.976Z,81.00
2018-05-14T11:34:56.112Z,81.30
2018-05-14T11:37:28.011Z,81.10
2018-05-14T11:39:59.891Z,81.20
2018-05-14T11:42:31.777Z,79.90
2018-05-14T11:45:04.422Z,80.30
2018-05-14T11:47:36.321Z,80.10
2018-05-14T11:50:08.958Z,80.30
2018-05-14T11:52:40.861Z,80.20
2018-05-14T11:55:13.755Z,80.40
2018-05-14T11:57:45.656Z,80.30
2018-05-14T12:00:17.547Z,79.70
2018-05-14T12:02:49.491Z,79.20
2018-05-14T12:05:21.332Z,81.30
2018-05-14T12:07:53.227Z,80.50
2018-05-14T12:10:25.098Z,79.60
2018-05-14T12:12:57.816Z,77.70
2018-05-14T12:15:29.968Z,77.70
2018-05-14T12:18:01.935Z,78.60
2018-05-14T12:20:34.090Z,77.00
2018-05-14T12:23:05.988Z,77.10
2018-05-14T12:25:37.926Z,76.60
2018-05-14T12:28:09.757Z,76.40
2018-05-14T12:30:41.647Z,77.00
2018-05-14T12:33:13.539Z,77.10
2018-05-14T12:35:45.418Z,75.90
2018-05-14T12:38:17.318Z,75.80
2018-05-14T12:40:49.299Z,74.70
2018-05-14T12:43:21.216Z,74.50
2018-05-14T12:45:54.119Z,74.90
2018-05-14T12:48:26.055Z,74.80
2018-05-14T12:50:57.938Z,74.60
2018-05-14T12:53:29.832Z,74.10
2018-05-14T12:56:02.075Z,74.40
2018-05-14T12:58:33.981Z,71.60
2018-05-14T13:01:05.871Z,71.10
2018-05-14T13:03:38.530Z,71.00
2018-05-14T13:06:10.410Z,71.00
2018-05-14T13:08:43.073Z,69.80
2018-05-14T13:11:14.966Z,69.80
2018-05-14T13:13:46.863Z,70.10
2018-05-14T13:16:19.000Z,69.20
2018-05-14T13:18:51.162Z,69.90
2018-05-14T13:21:23.062Z,69.10
2018-05-14T13:23:55.727Z,70.70
2018-05-14T13:26:27.608Z,70.70
2018-05-14T13:28:59.498Z,70.10
2018-05-14T13:31:32.147Z,70.40
2018-05-14T13:34:04.038Z,70.40
2018-05-14T13:36:36.689Z,67.80
2018-05-14T13:39:08.579Z,67.80
2018-05-14T13:41:41.215Z,69.00
2018-05-14T13:44:13.205Z,69.00
2018-05-14T13:46:45.774Z,67.60
2018-05-14T13:49:17.666Z,67.60
2018-05-14T13:51:50.312Z,67.00
2018-05-14T13:54:22.217Z,66.80
2018-05-14T13:56:54.138Z,68.10
2018-05-14T13:59:26.036Z,67.40
2018-05-14T14:01:58.205Z,66.30
2018-05-14T14:04:30.102Z,66.70
2018-05-14T14:07:01.972Z,66.40
2018-05-14T14:09:33.872Z,65.30
2018-05-14T14:12:06.513Z,64.30
2018-05-14T14:14:38.421Z,64.30
2018-05-14T14:17:11.060Z,63.00
2018-05-14T14:19:42.959Z,62.90
2018-05-14T14:22:14.870Z,61.40
2018-05-14T14:24:46.774Z,61.60
2018-05-14T14:27:18.662Z,61.20
2018-05-14T14:29:50.678Z,62.10
2018-05-14T14:32:22.467Z,61.50
2018-05-14T14:34:54.407Z,61.40
2018-05-14T14:37:27.086Z,60.40
2018-05-14T14:39:59.739Z,60.10
2018-05-14T14:42:31.654Z,60.00
2018-05-14T14:45:03.550Z,59.10
2018-05-14T14:47:35.433Z,59.20
2018-05-14T14:50:07.335Z,59.10
2018-05-14T14:52:39.482Z,60.00
2018-05-14T14:55:12.214Z,59.40
2018-05-14T14:57:44.239Z,59.40
2018-05-14T15:00:16.134Z,58.00
2018-05-14T15:02:48.018Z,57.60
2018-05-14T15:05:19.912Z,57.00
2018-05-14T15:07:51.789Z,57.40
2018-05-14T15:10:23.679Z,56.70
2018-05-14T15:12:55.556Z,55.50
2018-05-14T15:15:27.443Z,55.20
2018-05-14T15:18:00.090Z,53.50
2018-05-14T15:20:32.210Z,53.40
2018-05-14T15:23:04.094Z,53.20
2018-05-14T15:25:36.746Z,53.50
2018-05-14T15:28:08.899Z,53.50
2018-05-14T15:30:40.791Z,53.60
2018-05-14T15:33:12.744Z,53.00
2018-05-14T15:35:44.886Z,51.70
2018-05-14T15:38:16.767Z,53.10
2018-05-14T15:40:48.663Z,52.60
2018-05-14T15:43:20.889Z,53.00
2018-05-14T15:45:53.943Z,51.00
2018-05-14T15:48:26.578Z,51.50
2018-05-14T15:50:58.710Z,51.50
2018-05-14T15:53:30.602Z,50.20
2018-05-14T15:56:02.486Z,49.00
2018-05-14T15:58:34.365Z,49.80
2018-05-14T16:01:06.254Z,49.10
2018-05-14T16:03:38.134Z,48.90
2018-05-14T16:06:10.032Z,49.10
2018-05-14T16:08:41.910Z,49.30
2018-05-14T16:11:14.565Z,47.90
2018-05-14T16:13:46.449Z,47.90
2018-05-14T16:16:19.357Z,47.60
2018-05-14T16:18:51.328Z,47.50
2018-05-14T16:21:23.226Z,47.50
2018-05-14T16:23:55.110Z,47.10
2018-05-14T16:26:26.999Z,47.70
2018-05-14T16:28:58.871Z,48.30
2018-05-14T16:31:30.758Z,47.90
2018-05-14T16:34:02.651Z,47.80
2018-05-14T16:36:34.839Z,47.70
2018-05-14T16:39:06.718Z,46.40
2018-05-14T16:41:38.614Z,46.60
2018-05-14T16:44:10.494Z,47.00
2018-05-14T16:46:42.381Z,47.10
2018-05-14T16:49:14.269Z,47.80
2018-05-14T16:51:46.174Z,47.80
2018-05-14T16:54:18.046Z,48.40
2018-05-14T16:56:51.050Z,47.60
2018-05-14T16:59:22.938Z,47.50
2018-05-14T17:01:54.830Z,48.70
2018-05-14T17:04:26.711Z,47.70
2018-05-14T17:06:58.603Z,48.00
2018-05-14T17:09:31.382Z,47.50
2018-05-14T17:12:03.270Z,47.50
2018-05-14T17:14:35.151Z,47.80
2018-05-14T17:17:07.048Z,48.20
2018-05-14T17:19:39.698Z,48.40
2018-05-14T17:22:11.901Z,48.40
2018-05-14T17:24:43.798Z,47.50
2018-05-14T17:27:16.742Z,47.70
2018-05-14T17:29:48.915Z,47.70
2018-05-14T17:32:20.798Z,47.90
2018-05-14T17:34:52.715Z,48.20
2018-05-14T17:37:25.373Z,48.00
2018-05-14T17:39:57.258Z,48.00
2018-05-14T17:42:29.911Z,48.50
2018-05-14T17:45:01.816Z,48.40
2018-05-14T17:47:33.698Z,47.50
2018-05-14T17:50:05.837Z,47.50
2018-05-14T17:52:38.531Z,50.00
2018-05-14T17:55:10.414Z,45.60
2018-05-14T17:57:42.306Z,45.90
2018-05-14T18:00:14.202Z,46.10
2018-05-14T18:02:46.887Z,46.40
2018-05-14T18:05:18.884Z,46.40
2018-05-14T18:07:52.223Z,45.80
2018-05-14T18:10:24.912Z,46.70
2018-05-14T18:12:56.774Z,46.60
2018-05-14T18:15:28.661Z,46.20
2018-05-14T18:18:00.626Z,47.10
2018-05-14T18:20:32.435Z,46.80
2018-05-14T18:23:05.099Z,47.30
2018-05-14T18:25:37.224Z,47.30
2018-05-14T18:28:09.362Z,47.60
2018-05-14T18:30:41.258Z,47.80
2018-05-14T18:33:13.158Z,48.20
2018-05-14T18:35:45.176Z,48.20
2018-05-14T18:38:17.099Z,48.40
2018-05-14T18:40:49.764Z,48.80
2018-05-14T18:43:21.669Z,48.70
2018-05-14T18:45:53.819Z,48.80
2018-05-14T18:48:25.719Z,49.00
2018-05-14T18:50:57.627Z,49.50
2018-05-14T18:53:30.311Z,50.20
2018-05-14T18:56:02.954Z,50.70
2018-05-14T18:58:34.854Z,50.70
2018-05-14T19:01:06.730Z,50.30
2018-05-14T19:03:38.615Z,50.70
2018-05-14T19:06:10.503Z,50.80
2018-05-14T19:08:42.392Z,50.90
2018-05-14T19:11:14.262Z,51.20
2018-05-14T19:13:46.267Z,51.10
2018-05-14T19:16:18.166Z,51.50
2018-05-14T19:18:50.884Z,52.20
2018-05-14T19:21:22.855Z,52.10
2018-05-14T19:23:54.765Z,52.90
2018-05-14T19:26:27.537Z,52.40
2018-05-14T19:28:59.501Z,52.70
2018-05-14T19:31:31.383Z,52.40
2018-05-14T19:34:03.277Z,52.50
2018-05-14T19:36:35.178Z,52.40
2018-05-14T19:39:07.374Z,52.60
2018-05-14T19:41:39.333Z,52.30
2018-05-14T19:44:11.171Z,52.30
2018-05-14T19:46:43.046Z,53.00
2018-05-14T19:49:15.718Z,53.10
2018-05-14T19:51:48.390Z,53.60
2018-05-14T19:54:20.279Z,53.60
2018-05-14T19:56:52.158Z,53.90
2018-05-14T19:59:24.305Z,54.00
2018-05-14T20:01:56.182Z,53.90
2018-05-14T20:04:28.075Z,54.10
2018-05-14T20:07:00.182Z,54.50
2018-05-14T20:09:32.070Z,54.60
2018-05-14T20:12:04.218Z,54.60
2018-05-14T20:14:36.109Z,55.00
2018-05-14T20:17:07.970Z,55.10
2018-05-14T20:19:39.913Z,55.20
2018-05-14T20:22:12.062Z,55.30
2018-05-14T20:24:43.954Z,55.80
2018-05-14T20:27:15.843Z,56.30
2018-05-14T20:29:47.739Z,56.20
2018-05-14T20:32:19.621Z,56.40
2018-05-14T20:34:51.507Z,56.30
2018-05-14T20:37:25.166Z,56.20
2018-05-14T20:39:56.982Z,56.20
